x

8452951 - Potter Cove, Prudence Island, Ri (ptcr1) Weather Station

6:18 - Tue 30th May 2017 All times are EDT. -4 hours from GMT.

  • Wind
    6mph, 7mph gusts
  • Luft Temp 51°f
  • Sea Pressure 1021.9mb
  • 8452951 - Potter Cove, Prudence Island, Ri
  • 8452951 - Potter Cove, Prudence Island, Ri

More Historic Weather Station data

Upgrade to MSW Pro to gain access to the past 30 days of data for over 8000 Wavebouys and Weather Stations around the globe.

Join Pro

Comparision Forecast

View Surf forecast
   
Di 05/30 6:18 6 7 mph 1021.9mb 51f
6:12 6 8 mph 1021.9mb 51f
6:06 5 7 mph 1021.6mb 51f
6:00 5 7 mph 1021.7mb 51f
5:54 6 8 mph 1021.7mb 51f
5:48 6 8 mph - -
5:42 6 8 mph 1021.6mb 51f
5:36 5 7 mph 1021.5mb 51f
5:30 5 7 mph 1021.3mb 50f
5:24 5 7 mph 1021.2mb 50f
5:18 5 6 mph 1021.1mb 51f
5:12 6 8 mph 1021.1mb 51f
5:06 3 7 mph 1021.1mb 51f
5:00 5 6 mph 1021mb 51f
4:54 5 7 mph 1021.1mb 50f
4:48 3 6 mph 1021mb 50f
4:42 3 5 mph 1021.1mb 50f
4:36 5 6 mph 1021mb 50f
4:30 5 7 mph 1020.9mb 50f
4:24 6 8 mph 1020.9mb 51f
4:18 5 7 mph 1020.7mb 50f
4:12 6 8 mph 1020.8mb 51f
4:06 5 7 mph 1020.8mb 51f
4:00 5 6 mph 1020.7mb 50f
3:54 5 6 mph 1020.8mb 50f
3:48 5 7 mph 1020.9mb 50f
3:42 5 6 mph 1020.9mb 50f
3:36 5 7 mph 1021.1mb 50f
3:30 5 6 mph 1021.1mb 50f
3:24 6 8 mph 1021.1mb 50f
3:18 5 7 mph 1020.9mb 50f
3:12 5 8 mph 1020.8mb 50f
3:06 5 7 mph 1020.7mb 50f
3:00 5 7 mph 1020.7mb 50f
2:54 6 8 mph 1020.6mb 50f
2:48 6 9 mph 1020.7mb 50f
2:42 7 10 mph 1020.6mb -
2:36 7 10 mph 1020.6mb -
2:30 7 9 mph 1020.5mb 50f
2:24 7 10 mph 1020.5mb 50f
2:18 8 11 mph 1020.4mb 50f
2:12 8 11 mph 1020.2mb 50f
2:06 7 9 mph 1020.1mb 50f
2:00 7 10 mph 1020.1mb 50f
1:54 7 10 mph 1020.1mb 50f
1:48 8 11 mph 1020mb 51f
1:42 8 11 mph - -
1:36 8 13 mph - -
1:30 9 11 mph 1019.9mb 51f
1:24 9 11 mph 1020mb 51f
1:18 9 13 mph 1020.1mb 51f
1:12 7 11 mph 1020.2mb 51f
1:06 7 9 mph 1020.2mb 50f
1:00 6 9 mph 1020.4mb 50f
12:54 7 10 mph 1020.3mb 50f
12:48 6 9 mph 1020.2mb 50f
12:42 7 10 mph 1020.2mb 51f
12:36 10 13 mph 1020.1mb 51f
12:30 9 13 mph 1020mb 51f
12:24 8 10 mph 1020mb 51f
12:18 8 11 mph 1019.9mb 51f
12:12 8 10 mph 1019.8mb 50f
12:06 7 10 mph 1019.8mb 50f
12:00 9 13 mph 1019.8mb 51f
Mo 05/29 11:54 10 14 mph 1019.8mb 51f
11:48 9 11 mph 1019.7mb 51f
11:42 7 10 mph 1019.8mb 51f
11:36 8 11 mph 1019.8mb 51f
11:30 9 13 mph 1019.8mb 50f
11:24 9 13 mph 1019.8mb 50f
11:18 9 13 mph 1019.8mb 51f
11:12 9 13 mph 1019.7mb 51f
11:06 10 14 mph 1019.7mb 51f
11:00 10 14 mph 1019.6mb 51f
10:54 10 14 mph 1019.6mb 51f
10:48 8 11 mph 1019.7mb 51f
10:42 8 13 mph 1019.7mb 51f
10:36 9 11 mph 1019.7mb 51f
10:30 8 13 mph 1019.7mb 51f
10:24 8 13 mph 1019.7mb 51f
10:18 9 13 mph 1019.7mb -
10:12 8 14 mph 1019.8mb 51f
10:06 9 13 mph 1019.8mb 51f
10:00 9 11 mph 1019.7mb 51f
9:48 9 13 mph 1019.8mb -
9:42 9 11 mph 1019.9mb 52f
9:36 9 11 mph 1019.8mb 52f
9:30 8 13 mph 1019.8mb 52f
9:24 7 9 mph 1019.8mb 52f
9:18 8 10 mph 1019.8mb 52f
9:12 8 11 mph 1019.7mb 52f
9:06 8 10 mph 1019.6mb 52f
9:00 7 11 mph 1019.5mb 52f
8:48 8 11 mph - -
8:42 9 14 mph 1019.3mb 52f
8:36 8 14 mph 1019.3mb 52f
8:30 9 13 mph 1019.3mb 52f
8:24 10 14 mph 1019.2mb 52f
8:18 10 14 mph 1019.1mb 52f
8:12 9 13 mph 1019mb 51f
8:06 8 13 mph 1019mb 51f
8:00 8 13 mph 1018.9mb 52f
7:54 9 13 mph 1018.8mb 52f
7:48 9 13 mph 1018.7mb -
7:42 8 11 mph 1018.7mb 51f
7:36 8 11 mph 1018.8mb 52f
7:30 9 13 mph 1018.9mb -
7:24 9 14 mph 1018.8mb 52f
7:18 10 14 mph 1018.7mb 52f
7:12 8 13 mph 1018.6mb 52f
7:06 9 13 mph 1018.7mb 52f
7:00 9 11 mph 1018.5mb 52f
6:54 9 14 mph 1018.3mb 52f
6:48 10 14 mph 1018.2mb -
6:42 9 13 mph 1018.1mb 52f
6:36 8 14 mph 1018.2mb 52f
6:30 7 9 mph 1018.1mb 52f
6:24 9 13 mph 1018.1mb 52f
6:18 9 13 mph 1018mb -
6:12 8 14 mph 1018mb 52f
6:06 10 14 mph 1017.7mb 52f
6:00 10 14 mph 1017.8mb 52f
5:54 10 15 mph 1017.7mb 52f
5:48 10 15 mph 1017.7mb 52f
5:42 14 17 mph 1017.7mb 52f
5:36 14 18 mph 1017.6mb 52f
5:30 11 16 mph 1017.7mb 52f
5:24 11 17 mph 1017.6mb 52f
5:18 10 15 mph 1017.6mb 52f
5:12 10 15 mph 1017.6mb 52f
5:06 10 15 mph 1017.6mb 52f
5:00 10 14 mph 1017.6mb 53f
4:54 10 15 mph 1017.4mb 53f
4:48 13 16 mph 1017.4mb 53f
4:42 11 16 mph 1017.3mb 53f
4:36 11 15 mph 1017.4mb 53f
4:30 10 16 mph 1017.4mb 53f
4:24 11 18 mph 1017.4mb 53f
4:18 10 14 mph 1017.2mb 53f
4:12 9 13 mph 1017.2mb 53f
4:06 10 14 mph 1017mb 53f
4:00 11 16 mph 1016.9mb 53f
3:54 11 16 mph 1016.8mb 53f
3:48 9 14 mph 1016.7mb 53f
3:42 11 15 mph 1016.6mb 54f
3:36 9 14 mph 1016.5mb 54f
3:30 10 15 mph 1016.5mb 54f
3:24 11 15 mph 1016.4mb 54f
3:18 13 17 mph 1016.4mb 54f
3:12 10 15 mph 1016.4mb 54f
3:06 11 17 mph 1016.5mb 53f
3:00 13 17 mph 1016.3mb 53f
2:54 11 17 mph 1016.2mb 54f
2:48 13 17 mph 1016.1mb 54f
2:42 14 20 mph 1015.9mb 54f
2:36 11 15 mph 1015.8mb 54f
2:30 10 16 mph 1015.9mb 54f
2:24 10 14 mph 1015.8mb 55f
2:18 9 14 mph 1015.8mb 55f
2:12 11 14 mph 1015.9mb 55f
2:06 9 14 mph 1015.6mb 55f
2:00 11 15 mph 1015.6mb 55f
1:54 9 13 mph 1015.5mb 55f
1:48 8 11 mph 1015.6mb 55f
1:42 9 13 mph 1015.7mb 55f
1:36 7 11 mph 1015.8mb 55f
1:30 9 13 mph 1015.8mb 55f
1:24 8 13 mph 1015.7mb 55f
1:18 8 13 mph 1015.6mb 54f
1:12 8 10 mph 1015.7mb 54f
1:06 9 13 mph 1015.7mb 54f
1:00 7 10 mph 1015.6mb 54f
12:54 9 13 mph 1015.6mb 54f
12:48 9 13 mph 1015.5mb 54f
12:42 7 10 mph 1015.5mb 54f
12:36 9 13 mph 1015.5mb 54f
12:30 10 14 mph 1015.4mb 53f
12:24 9 13 mph 1015.3mb 53f
12:18 8 10 mph - -
12:12 8 11 mph 1015.3mb 53f
12:06 8 11 mph 1015.2mb 53f
12:00 8 11 mph 1015.1mb 53f
11:54 9 15 mph 1015.2mb 52f
11:48 9 14 mph 1015.2mb 52f
11:42 10 15 mph 1015.1mb 52f
11:36 11 15 mph 1014.8mb 52f
11:30 11 17 mph 1015mb 52f
11:24 11 16 mph 1014.9mb 52f
11:18 9 13 mph - -
11:12 8 11 mph 1015.4mb 51f
11:06 8 13 mph 1015.4mb 52f
11:00 10 15 mph 1015.3mb 52f
10:54 9 14 mph 1014.9mb 52f
10:48 9 13 mph 1015mb 52f
10:42 8 13 mph 1015.2mb 52f
10:36 7 11 mph 1015.2mb 52f
10:30 9 14 mph 1015.2mb 52f
10:24 10 14 mph 1015.3mb 52f
10:18 11 14 mph 1015.2mb 52f
10:12 10 15 mph 1014.9mb 52f
10:06 10 16 mph 1014.8mb 52f
10:00 11 17 mph 1014.6mb 52f
9:54 13 18 mph 1014.5mb 52f
9:48 11 15 mph 1014.4mb 52f
9:42 11 17 mph 1014.5mb 52f
9:36 10 16 mph 1014.8mb 52f
9:30 9 14 mph 1014.9mb 52f
9:24 9 14 mph 1015mb 52f
9:18 10 16 mph 1015mb 52f
9:12 9 15 mph 1014.9mb 52f
9:06 9 15 mph 1014.8mb 52f
9:00 9 13 mph 1014.8mb 52f
8:54 11 16 mph 1014.8mb 52f
8:48 10 16 mph 1014.8mb 52f
8:42 10 15 mph 1014.6mb 52f
8:36 9 15 mph 1014.7mb 52f
8:30 10 14 mph 1014.7mb 52f
8:24 10 14 mph 1014.8mb 52f
8:18 9 16 mph 1014.9mb 52f
8:12 9 14 mph 1015mb 52f
8:06 8 14 mph 1015.2mb 52f
8:00 8 14 mph 1015mb 52f
7:54 8 14 mph 1015.2mb 52f
7:48 10 15 mph 1015.4mb 53f
7:42 10 15 mph 1015.4mb 53f
7:36 10 14 mph 1015.4mb 53f
7:30 9 13 mph 1015.3mb 53f
7:24 9 14 mph 1015.1mb 53f
7:18 10 14 mph 1015mb 53f
7:12 9 13 mph 1015mb 53f
7:06 11 15 mph 1014.9mb 53f
7:00 10 14 mph 1014.8mb 53f
6:54 11 16 mph 1014.7mb 53f
6:48 11 17 mph 1014.8mb 53f
6:42 9 14 mph 1014.8mb 53f
6:36 11 16 mph 1014.9mb 54f
6:30 13 17 mph 1014.9mb 54f
6:24 11 18 mph 1014.9mb 54f
6:18 11 14 mph 1014.9mb 54f
6:12 10 14 mph 1014.9mb 54f
6:06 8 11 mph 1015.1mb 54f
6:00 9 15 mph 1014.9mb 54f
5:54 7 11 mph 1014.9mb 53f
5:48 7 11 mph 1015.1mb 54f
5:42 8 13 mph 1015.1mb 54f
5:36 7 11 mph 1015.1mb 53f
5:30 7 10 mph 1015.1mb 53f
5:24 8 10 mph 1015mb 53f
5:18 7 10 mph 1015mb 53f
5:12 7 11 mph 1014.7mb 53f
5:06 7 13 mph 1014.3mb 53f
5:00 6 9 mph 1014.4mb 53f
4:54 5 9 mph 1014.6mb 53f
4:48 5 9 mph 1014.6mb 53f
4:42 6 11 mph 1014.5mb 53f
4:36 6 9 mph 1014.2mb 53f
4:30 5 9 mph 1014.2mb 53f
4:24 6 8 mph 1014.4mb 53f
4:18 5 8 mph 1014.5mb 53f
4:12 5 7 mph 1014.5mb 53f
4:06 5 9 mph 1014.4mb 53f
4:00 5 7 mph 1014.4mb 53f
3:54 3 6 mph 1014.4mb 53f
3:48 3 7 mph - 53f
3:42 3 6 mph - 53f
3:36 3 7 mph - 53f
3:30 3 6 mph 1014.4mb 53f
3:24 3 5 mph 1014.4mb 53f
3:18 2 5 mph - -
3:12 3 6 mph 1014.5mb 53f
3:06 2 5 mph 1014.6mb 53f
3:00 2 6 mph 1014.7mb 53f
2:54 3 6 mph 1014.6mb 53f
2:48 2 6 mph 1014.6mb 53f
2:42 1 5 mph 1014.8mb -
2:36 3 5 mph 1014.8mb -
2:30 1 3 mph 1014.8mb 52f
2:24 1 3 mph 1014.8mb 52f
2:18 1 5 mph 1014.9mb 52f
2:12 1 3 mph 1014.9mb 52f
2:06 2 5 mph 1014.9mb 52f
2:00  -  1 mph 1014.9mb 52f
1:54  -  1 mph 1014.9mb 51f
1:48  -  1 mph 1014.8mb 52f
1:42 1 3 mph 1014.9mb -
1:36  -  2 mph 1014.9mb -
1:30 1 2 mph 1014.8mb 52f
1:24 1 2 mph 1014.8mb 52f
1:18  -  1 mph 1014.9mb 52f
1:12  -  2 mph 1015mb 52f
1:06  -  1 mph 1015.1mb 52f
1:00 1 2 mph 1015.1mb 52f
12:54 1 5 mph 1015.1mb 52f
12:48 2 6 mph 1015.1mb 52f
12:42 1 5 mph 1015mb 52f
12:36 2 5 mph 1015mb 52f
12:30 3 6 mph 1015.1mb 52f
12:24 2 5 mph 1015.2mb 52f
12:18 2 5 mph 1015.2mb 52f
12:12 2 5 mph 1015.2mb 52f
12:06 2 5 mph 1015.3mb 52f
12:00 2 3 mph 1015.3mb 52f
So 05/28 11:54 2 5 mph 1015.4mb 52f
11:48 1 5 mph 1015.3mb 52f
11:42 3 6 mph 1015.5mb 52f
11:36 2 6 mph 1015.6mb 53f
11:30 2 5 mph 1015.6mb 52f
11:24 2 3 mph 1015.5mb 53f
11:18 2 3 mph 1015.5mb 53f
11:12 2 3 mph 1015.6mb 53f
11:06 1 3 mph 1015.6mb 53f
11:00 1 2 mph 1015.6mb 53f
10:54 1 2 mph 1015.7mb 53f
10:48  -  2 mph 1015.8mb 53f
10:42  -  2 mph 1015.8mb 53f
10:36  -  1 mph 1015.8mb 53f
10:30  -  2 mph 1015.8mb 53f
10:24  -  3 mph 1015.9mb 53f
10:18 1 3 mph 1015.9mb 53f
10:12 2 3 mph 1015.9mb 53f
10:06 2 5 mph 1016mb 53f
10:00 2 7 mph 1015.9mb 54f
9:54 1 3 mph 1015.9mb 54f
9:48 2 3 mph 1015.9mb -
9:42 2 5 mph 1016.1mb 54f
9:36 2 6 mph 1016.2mb 54f
9:30 3 6 mph 1016.1mb 54f
9:24 2 8 mph 1016mb 54f
9:18 2 7 mph - -
9:12 2 6 mph 1016mb 54f
9:06 3 6 mph 1016.1mb 54f
9:00 3 8 mph 1016.1mb 54f
8:54 2 7 mph 1016.1mb 54f
8:48 5 8 mph 1016.1mb 54f
8:42 2 6 mph 1016.1mb 54f
8:36 2 6 mph 1016mb 54f
8:30 2 6 mph 1016mb -
8:24 1 6 mph 1015.9mb 54f
8:18 2 3 mph 1015.8mb -
8:12 1 3 mph 1015.8mb 55f
8:06 2 8 mph 1015.8mb 55f
8:00 2 9 mph 1015.6mb -
7:54 2 7 mph 1015.8mb 55f
7:48 5 9 mph 1015.9mb 55f
7:42 6 10 mph 1015.9mb 56f
7:36 3 8 mph 1015.9mb 56f
7:30 5 10 mph 1015.9mb 56f
7:24 3 6 mph 1016mb 56f
7:18 6 10 mph - -
7:12 5 8 mph 1015.9mb 56f
7:06 6 10 mph 1016mb 56f
7:00 5 9 mph 1015.9mb -
6:54 3 7 mph 1015.8mb 57f
6:48 3 7 mph 1015.8mb -
6:42 2 6 mph 1015.8mb 57f
6:36 3 7 mph 1015.6mb 58f
6:30 3 8 mph 1015.7mb 58f
6:24 3 7 mph 1015.6mb 58f
6:18 3 8 mph 1015.6mb 58f
6:12 2 6 mph 1015.5mb 59f
6:06 3 7 mph 1015.3mb 59f
6:00 2 8 mph 1015.3mb 59f
5:54 5 8 mph 1015.3mb 59f
5:48 5 8 mph - -
5:42 5 7 mph 1015.2mb 60f
5:36 5 10 mph 1015.2mb 60f
5:30 5 8 mph 1015.2mb 60f
5:24 6 14 mph 1015.2mb 60f
5:18 5 11 mph 1015.2mb 60f
5:12 5 11 mph 1015.2mb 60f
5:06 6 14 mph 1015.3mb 60f
5:00 6 11 mph 1015.3mb 60f
4:54 7 13 mph 1015.4mb 60f
4:48 6 13 mph 1015.5mb 60f
4:42 5 11 mph 1015.4mb 61f
4:36 6 11 mph 1015.5mb 62f
4:30 6 14 mph 1015.6mb 61f
4:24 6 11 mph 1015.6mb 60f
4:18 8 14 mph - -
4:12 6 13 mph 1015.6mb 61f
4:06 8 14 mph 1015.5mb 61f
4:00 6 14 mph 1015.4mb 61f
3:54 7 14 mph 1015.4mb 61f
3:48 7 15 mph 1015.4mb 62f
3:42 6 13 mph 1015.3mb 62f
3:36 7 17 mph 1015.3mb 62f
3:30 7 15 mph 1015.4mb 62f
3:24 6 11 mph 1015.5mb 62f
3:18 8 16 mph 1015.5mb 62f
3:12 8 17 mph 1015.4mb 62f
3:06 7 14 mph 1015.4mb 62f
3:00 7 16 mph 1015.5mb 62f
2:54 6 13 mph 1015.5mb 62f
2:48 7 14 mph - -
2:42 7 14 mph 1015.6mb 62f
2:36 7 14 mph 1015.6mb 62f
2:30 7 14 mph 1015.6mb 62f
2:24 8 15 mph 1015.7mb 62f
2:18 7 14 mph 1015.8mb 62f
2:12 7 16 mph 1015.8mb 62f
2:06 7 15 mph 1015.8mb 63f
2:00 7 14 mph 1015.8mb 63f
1:54 7 16 mph 1015.8mb 63f
1:48 6 11 mph 1015.7mb 64f
1:42 7 13 mph 1015.7mb 64f
1:36 8 17 mph 1015.6mb 63f
1:30 7 14 mph 1015.7mb 63f
1:24 6 14 mph 1015.7mb 64f
1:18 7 15 mph 1015.6mb 64f
1:12 6 13 mph 1015.5mb 64f
1:06 7 13 mph 1015.4mb 64f
1:00 6 14 mph 1015.3mb 63f
12:54 6 14 mph 1015.2mb 64f
12:48 6 14 mph 1015.1mb 64f
12:42 7 14 mph 1015.1mb 64f
12:36 8 14 mph 1015.1mb 64f
12:30 7 14 mph 1015.1mb 64f
12:24 7 16 mph 1015mb 63f
12:18 7 14 mph 1015mb 63f
12:12 7 14 mph 1015.1mb 63f
12:06 7 14 mph 1015.1mb 63f
12:00 9 14 mph 1015.1mb 63f
11:54 5 11 mph 1014.9mb 63f
11:48 7 13 mph 1014.7mb 64f
11:42 7 13 mph 1014.8mb 63f
11:36 6 14 mph 1014.8mb 63f
11:30 7 15 mph 1014.8mb 63f
11:24 5 10 mph 1014.8mb 62f
11:18 8 14 mph 1014.8mb 63f
11:12 6 14 mph 1014.7mb 62f
11:06 8 13 mph 1014.7mb 62f
11:00 3 8 mph 1014.6mb 62f
10:54 6 13 mph 1014.7mb 63f
10:48 8 14 mph 1014.7mb 62f
10:42 7 13 mph 1014.7mb 62f
10:36 7 14 mph 1014.6mb 61f
10:30 6 13 mph 1014.7mb 62f
10:24 5 11 mph 1014.6mb 62f
10:18 6 10 mph 1014.6mb 62f
10:12 3 7 mph 1014.6mb 62f
10:06 2 6 mph 1014.6mb 63f
10:00 2 8 mph 1014.5mb 63f
9:54 5 10 mph 1014.6mb 62f
9:48 2 8 mph 1014.7mb 61f
9:42 6 8 mph 1014.9mb 62f
9:36 5 8 mph 1014.9mb 60f
9:30 5 9 mph 1015mb 60f
9:24 6 9 mph 1014.9mb 59f
9:18 3 9 mph 1015.1mb 59f
9:12 5 10 mph 1015.1mb 60f
9:06 3 7 mph 1015.1mb 60f
9:00 5 7 mph 1015mb 60f
8:54 2 6 mph 1015mb 59f
8:48 2 6 mph 1014.9mb 59f
8:42 2 5 mph 1014.9mb 59f
8:36 2 5 mph 1014.9mb 58f
8:30 2 6 mph 1015mb 58f
8:24 3 6 mph 1014.9mb 58f
8:18 2 6 mph 1015mb 58f
8:12 3 6 mph 1014.9mb 58f
8:06 2 6 mph 1014.8mb 57f
8:00 3 6 mph 1014.9mb 57f
7:54 3 6 mph 1014.9mb 57f
7:48 3 7 mph 1014.9mb 57f
7:42 3 6 mph 1014.9mb 57f
7:36 3 7 mph 1014.9mb 57f
7:30 5 7 mph 1015mb 57f
7:24 6 10 mph 1014.9mb 57f
7:18 6 9 mph 1015mb 57f
7:12 5 9 mph 1014.8mb 57f
7:06 3 6 mph 1014.7mb 57f
7:00 5 8 mph 1014.6mb 56f
6:54 6 8 mph 1014.6mb 56f
6:48 5 9 mph 1014.4mb 56f
6:42 5 9 mph 1014.3mb 56f
6:36 5 7 mph 1014.1mb 56f
6:30 5 8 mph 1014mb 56f
6:24 5 10 mph 1014mb 56f
6:18 5 7 mph 1013.8mb 56f
6:12 6 10 mph 1013.7mb 56f
6:06 6 10 mph 1013.7mb 56f
6:00 5 10 mph 1013.5mb 56f
5:54 3 9 mph 1013.5mb 56f
5:48 5 8 mph 1013.2mb 56f
5:42 3 9 mph 1013.2mb 56f
5:36 3 6 mph 1013mb 56f
5:30 2 6 mph 1013mb 56f
5:24 2 6 mph 1012.8mb 56f
5:18 3 7 mph 1012.7mb 56f
5:12 3 7 mph 1012.5mb 56f
5:06 3 6 mph 1012.8mb 56f
5:00 3 6 mph 1012.9mb 56f
4:54 3 7 mph 1012.9mb 56f
4:48 3 6 mph - -
4:42 3 6 mph 1013.4mb 56f
4:36 2 5 mph 1013.4mb 56f
4:30 2 6 mph 1013.3mb 56f
4:24 3 6 mph 1013.3mb 56f
4:18 3 8 mph 1013.2mb 56f
4:12 2 6 mph 1013.2mb 56f
4:06 3 7 mph 1013.2mb 56f
4:00 3 7 mph 1013.2mb 56f
3:54 5 10 mph 1013.3mb 56f
3:48 5 10 mph 1013.4mb 56f
3:42 5 10 mph 1013.4mb 56f
3:36 3 7 mph 1013.2mb 56f
3:30 5 8 mph 1013.3mb 56f
3:24 3 8 mph 1013.3mb 56f
3:18 3 6 mph 1013.2mb 56f
3:12 3 7 mph 1013.3mb 55f
3:06 3 7 mph 1013.4mb 55f
3:00 3 8 mph 1013.3mb 55f
2:54 3 6 mph 1013.2mb 55f
2:48 2 6 mph 1013mb 55f
2:42 3 6 mph 1013.1mb 55f
2:36 2 6 mph 1013.2mb 55f
2:30 3 6 mph 1013.2mb 55f
2:24 2 5 mph 1013.3mb 55f
2:18 2 5 mph 1013.3mb 55f
2:12 2 7 mph 1013.3mb 55f
2:06 2 7 mph 1013.3mb 56f
2:00 2 6 mph 1013.5mb 56f
1:54 3 5 mph 1013.5mb 56f
1:48 2 5 mph - -
1:42 1 5 mph 1013.4mb 56f
1:36 2 6 mph 1013.5mb 56f
1:30 2 6 mph 1013.4mb 56f
1:24 3 7 mph 1013.3mb 56f
1:18 3 7 mph 1013.3mb 56f
1:12 3 8 mph 1013.5mb 56f
1:06 3 7 mph 1013.6mb 56f
1:00 3 6 mph 1013.6mb 56f
12:54 3 6 mph 1013.7mb 56f
12:48 1 3 mph 1013.9mb 56f
12:42 2 5 mph 1013.9mb 56f
12:36 1 3 mph 1013.9mb 56f
12:30 2 5 mph 1014mb 56f
12:24 2 3 mph 1014mb 56f
12:18 2 3 mph 1013.9mb 56f
12:12 2 5 mph 1013.9mb 56f
12:06 1 2 mph 1013.9mb 56f
12:00 1 5 mph 1013.9mb 56f
Sa 05/27 11:48 2 5 mph - -
11:42 2 8 mph 1013.9mb 56f
11:36 3 7 mph 1013.9mb 56f
11:30 3 7 mph 1013.8mb 56f
11:24 3 6 mph 1013.8mb 56f
11:18 2 6 mph 1013.8mb 57f
11:12 2 6 mph 1013.8mb 57f
11:06 2 6 mph 1013.7mb 57f
11:00 2 6 mph 1013.6mb 57f
10:54 2 3 mph 1013.6mb 57f
10:48 2 5 mph 1013.6mb 57f
10:42 2 5 mph 1013.6mb 57f
10:36 2 5 mph 1013.6mb 57f
10:30 2 5 mph 1013.6mb 57f
10:24 2 5 mph 1013.6mb 57f
10:18 2 5 mph 1013.7mb -
10:12  -  3 mph 1013.6mb 58f
10:06 2 3 mph 1013.5mb 58f
10:00 2 5 mph 1013.5mb 58f
9:54 3 6 mph 1013.4mb 58f
9:48 3 7 mph 1013.3mb 58f
9:42 2 5 mph 1013.2mb 58f
9:36 2 5 mph 1013.2mb 58f
9:30 2 5 mph 1013.2mb 58f
9:24 3 6 mph 1013.3mb 58f
9:18 3 6 mph - -
9:12 2 6 mph 1013.1mb 58f
9:06 2 6 mph 1013.1mb 58f
9:00 2 6 mph 1013.1mb 59f
8:54 3 6 mph 1013mb 59f
8:48 3 7 mph - -
8:42 5 8 mph 1013mb 59f
8:36 3 7 mph 1012.8mb 59f
8:30 3 6 mph 1012.7mb 59f
8:24 3 7 mph 1012.7mb 59f
8:18 5 8 mph 1012.6mb 59f
8:12 5 9 mph 1012.6mb 59f
8:06 5 11 mph 1012.6mb 59f
8:00 6 10 mph 1012.6mb 59f
7:54 3 8 mph 1012.5mb 59f
7:48 5 9 mph 1012.4mb -
7:42 5 8 mph 1012.4mb 60f
7:36 5 9 mph 1012.2mb 60f
7:30 5 9 mph 1012.2mb -
7:24 5 9 mph 1012.2mb 60f
7:18 5 8 mph - -
7:12 6 9 mph 1012.2mb 60f
7:06 5 8 mph 1012.1mb 61f
7:00 5 11 mph 1012.1mb 61f
6:54 5 9 mph 1012mb 61f
6:48 5 9 mph 1011.9mb 62f
6:42 5 9 mph 1011.8mb 63f
6:36 3 7 mph 1011.8mb 63f
6:30 3 7 mph 1011.8mb 63f
6:24 1 7 mph 1011.7mb 62f
6:18 2 7 mph - -
6:12 2 6 mph 1011.6mb 62f
6:06 2 6 mph 1011.6mb 62f
6:00 5 8 mph 1011.6mb 62f
5:54 3 7 mph 1011.6mb 62f
5:48 6 10 mph 1011.6mb -
5:42 5 9 mph 1011.6mb 62f
5:36 5 8 mph 1011.6mb 62f
5:30 5 8 mph 1011.7mb 62f
5:24 6 9 mph 1011.7mb 63f
5:18 5 8 mph 1011.6mb 64f
5:12 6 10 mph 1011.6mb 64f
5:06 5 9 mph 1011.7mb 63f
5:00 6 11 mph 1011.7mb 63f
4:54 5 8 mph 1011.7mb 63f
4:48 7 10 mph 1011.6mb 64f
4:42 6 11 mph 1011.6mb 64f
4:36 5 9 mph 1011.6mb 64f
4:30 5 8 mph 1011.7mb 64f
4:24 5 8 mph 1011.6mb 62f
4:18 5 8 mph 1011.6mb 63f
4:12 6 10 mph 1011.6mb 65f
4:06 5 8 mph 1011.6mb 65f
4:00 5 9 mph 1011.6mb 65f
3:54 6 8 mph 1011.5mb 64f
3:48 5 10 mph 1011.5mb 64f
3:42 5 9 mph 1011.5mb 64f
3:36 6 9 mph 1011.6mb 65f
3:30 5 9 mph 1011.6mb 64f
3:24 2 6 mph 1011.5mb 66f
3:18 2 5 mph 1011.5mb 68f
3:12 3 5 mph 1011.4mb 67f
3:06 2 7 mph 1011.4mb 67f
3:00 2 6 mph 1011.5mb 67f
2:54 5 8 mph 1011.5mb 67f
2:48 3 6 mph 1011.4mb 66f
2:42 2 5 mph 1011.4mb 67f
2:36 2 5 mph 1011.4mb 67f
2:30 3 6 mph 1011.5mb 67f
2:24 3 6 mph 1011.5mb 66f
2:18 2 6 mph 1011.4mb 65f
2:12 6 8 mph 1011.5mb 65f
2:06 3 6 mph 1011.5mb 64f
2:00 2 6 mph 1011.4mb 64f
1:54 5 8 mph 1011.5mb 65f
1:48 3 6 mph - -
1:42 5 7 mph 1011.4mb 65f
1:36 3 7 mph 1011.4mb 64f
1:30 3 6 mph 1011.5mb 64f
1:24 2 6 mph 1011.5mb 64f
1:18 1 5 mph 1011.5mb 64f
1:12 1 2 mph 1011.5mb 64f
1:06 1 2 mph 1011.4mb 63f
1:00 2 3 mph 1011.4mb 64f
12:54 2 3 mph 1011.4mb 63f
12:48 2 2 mph 1011.4mb 63f
12:42 1 2 mph 1011.4mb 63f
12:36 1 3 mph 1011.4mb 62f
12:30 3 3 mph 1011.4mb 62f
12:24 3 3 mph 1011.3mb 61f
12:18 2 3 mph 1011.3mb 62f
12:12 2 5 mph 1011.3mb 62f
12:06 5 5 mph 1011.3mb 62f
12:00 3 6 mph 1011.2mb 62f
11:54 3 5 mph 1011.2mb 61f
11:48 6 6 mph 1011.3mb 60f
11:42 6 7 mph 1011.3mb 60f
11:36 6 8 mph 1011.2mb 60f
11:30 7 8 mph 1011.2mb 60f
11:24 7 8 mph 1011.1mb 60f
11:18 6 8 mph 1011.1mb 60f
11:12 6 8 mph 1011.1mb 60f
11:06 7 9 mph 1011mb 60f
11:00 6 8 mph 1011mb 60f
10:54 5 7 mph 1011mb 60f
10:48 6 8 mph 1011mb 61f
10:42 6 7 mph 1011mb 60f
10:36 7 9 mph 1011mb 59f
10:30 7 9 mph 1011.1mb 60f
10:24 6 8 mph 1011.1mb 59f
10:18 7 9 mph 1011.1mb 59f
10:12 6 9 mph 1011.1mb 59f
10:06 5 8 mph 1011.2mb 58f
10:00 6 8 mph 1011.2mb 59f
9:54 3 6 mph 1011.2mb 59f
9:48 5 7 mph 1011.2mb 59f
9:42 3 6 mph 1011.1mb 60f
9:36 3 7 mph 1011.1mb 59f
9:30 3 6 mph 1011mb 59f
9:24 5 8 mph 1011.1mb 59f
9:18 6 9 mph 1011mb 59f
9:12 7 10 mph 1011mb 59f
9:06 8 10 mph 1010.9mb 58f
9:00 7 11 mph 1010.8mb 59f
8:54 7 11 mph 1010.8mb 60f
8:48 7 13 mph 1010.7mb 60f
8:42 5 7 mph 1010.7mb 58f
8:36 7 10 mph 1010.7mb 58f
8:30 6 8 mph 1010.6mb 59f
8:24 6 9 mph 1010.5mb 58f
8:18 7 10 mph 1010.4mb 58f
8:12 6 10 mph 1010.3mb 58f
8:06 5 8 mph 1010.3mb 58f
8:00 5 9 mph 1010.2mb 58f
7:54 5 7 mph 1010.3mb 58f
7:48 2 7 mph 1010.2mb 57f
7:42 5 8 mph 1010.2mb 57f
7:36 3 6 mph 1010.1mb 57f
7:30 5 8 mph 1010.1mb 56f
7:24 5 8 mph 1010mb 55f
7:18 3 7 mph 1010.1mb 56f
7:12 5 7 mph 1010mb 56f
7:06 3 6 mph 1009.9mb 56f
7:00 2 5 mph 1009.9mb 56f
6:54 2 6 mph 1009.9mb 56f
6:48 2 3 mph 1009.8mb 56f
6:42 1 5 mph 1009.7mb 56f
6:36 1 5 mph 1009.7mb 56f
6:30  -  2 mph 1009.7mb 56f
6:24 1 2 mph 1009.7mb 55f
6:18  -  2 mph 1009.6mb 55f
6:12  -  1 mph 1009.6mb 54f
6:06 1 2 mph 1009.5mb 54f
6:00  -  2 mph 1009.6mb 54f
5:54 1 3 mph 1009.5mb 54f
5:48 2 5 mph 1009.3mb 54f
5:42 1 2 mph 1009.2mb 54f
5:36 1 3 mph 1009.2mb 54f
5:30 5 7 mph 1009.1mb 54f
5:24 5 7 mph 1009.1mb 54f
5:18 6 7 mph 1009.1mb 54f
5:12 5 7 mph 1009mb 54f
5:06 5 6 mph 1009mb 54f
5:00 5 8 mph 1008.9mb 54f
4:54 6 8 mph 1008.9mb 54f
4:48 6 8 mph 1008.9mb 54f
4:42 5 8 mph 1008.8mb 54f
4:36 5 7 mph 1008.8mb 54f
4:30 3 7 mph 1008.8mb 54f
4:24 2 5 mph 1008.8mb 54f
4:18  -  1 mph 1008.7mb 54f
4:12  -  0 mph 1008.7mb 54f
4:06  -  0 mph 1008.5mb 54f
4:00 1 2 mph 1008.4mb 54f
3:54  -  0 mph 1008.4mb 54f
3:48  -  0 mph 1008.4mb 54f
3:42  -  0 mph 1008.3mb 54f
3:36  -  0 mph 1008.3mb 54f
3:30  -  0 mph 1008.4mb 54f
3:24  -  0 mph 1008.3mb 54f
3:18  -  1 mph 1008.3mb 54f
3:12  -  2 mph 1008.3mb 54f
3:06  -  1 mph 1008.3mb 54f
3:00  -  1 mph 1008.2mb 54f
2:54  -  1 mph 1008.2mb 54f
2:48  -  1 mph 1008.2mb 54f
2:42 1 2 mph - -
2:36 1 2 mph - -
2:30 1 2 mph 1008mb 54f
2:24 2 5 mph 1007.8mb 54f
2:18 3 5 mph 1007.8mb 54f
2:12 3 5 mph 1007.7mb 54f
2:06 2 3 mph 1007.7mb 54f
2:00 2 3 mph 1007.8mb 54f
1:54 3 6 mph 1007.9mb 54f
1:48 5 8 mph 1007.9mb 54f
1:42 6 8 mph 1007.8mb 55f
1:36 6 8 mph 1007.8mb 54f
1:30 6 9 mph 1007.8mb 55f
1:24 3 7 mph 1007.8mb 55f
1:18 6 7 mph 1007.7mb 55f
1:12 5 7 mph 1007.6mb 55f
1:06 7 10 mph 1007.5mb 55f
1:00 8 11 mph 1007.4mb 55f
12:54 8 13 mph 1007.4mb 55f
12:48 5 9 mph 1007.2mb 56f
12:42 3 7 mph 1007.2mb 56f
12:36 5 8 mph 1007.2mb 56f
12:30 5 9 mph 1007.2mb 56f
12:24 5 7 mph 1007.3mb 56f
12:18 3 7 mph 1007.2mb 56f
12:12 3 6 mph 1007.1mb 56f
12:06 5 10 mph 1007mb 57f
12:00 3 8 mph 1006.9mb 57f
Fr 05/26 11:54 3 7 mph 1006.9mb 57f
11:48 3 7 mph 1006.9mb 57f
11:42 2 7 mph 1006.9mb 57f
11:36 3 5 mph 1006.8mb 57f
11:30 5 8 mph 1006.8mb 57f
11:24 5 9 mph 1006.7mb 57f
11:18 5 8 mph 1006.6mb 57f
11:12 3 6 mph 1006.6mb 57f
11:06 3 6 mph 1006.4mb 57f
11:00 5 7 mph 1006.3mb 57f
10:54 3 7 mph 1006.2mb 57f
10:48 3 7 mph 1006.1mb 58f
10:42 5 7 mph 1006mb 58f
10:36 3 6 mph 1006mb 58f
10:30 2 5 mph 1005.9mb 58f
10:24 1 3 mph 1005.8mb 58f
10:18 1 2 mph 1005.9mb 58f
10:12 2 3 mph 1005.9mb 58f
10:06 3 5 mph 1006mb 57f
10:00 2 6 mph 1006mb 57f
9:54 1 2 mph 1006mb 57f
9:48 1 2 mph 1006mb -
9:42 1 2 mph 1005.9mb 57f
9:36 1 3 mph 1005.8mb 57f
9:30  -  1 mph 1005.7mb 57f
9:24  -  1 mph 1005.6mb 57f
9:18  -  2 mph 1005.5mb 57f
9:12 1 2 mph 1005.4mb 57f
9:06 1 2 mph 1005.3mb 57f
9:00 2 5 mph 1005.2mb 57f
8:54 1 3 mph 1005mb 57f
8:48 1 3 mph 1004.9mb 57f
8:42 1 2 mph 1004.8mb 57f
8:36 1 3 mph 1004.8mb 57f
8:30 1 2 mph 1004.7mb 57f
8:24 1 2 mph 1004.6mb 57f
8:18 1 3 mph - -
8:12 2 3 mph 1004.6mb 57f
8:06  -  2 mph 1004.5mb 57f
8:00 1 2 mph 1004.4mb 58f
7:54 2 3 mph 1004.3mb 58f
7:48 2 2 mph 1004.3mb 58f
7:42  -  1 mph 1004.3mb 58f
7:36  -  1 mph 1004.2mb 58f
7:30  -  0 mph 1004.1mb 58f
7:24  -  2 mph 1004mb 58f
7:18  -  1 mph - -
7:12  -  1 mph 1003.9mb 58f
7:06  -  0 mph 1003.7mb 58f
7:00  -  0 mph 1003.7mb 58f
6:54  -  0 mph 1003.6mb 58f
6:48  -  0 mph 1003.5mb 58f
6:42  -  1 mph 1003.4mb 58f
6:36  -  1 mph 1003.3mb 58f
6:30  -  1 mph 1003.4mb 58f
6:24  -  1 mph 1003.3mb 58f
6:18  -  1 mph - -
6:12 1 2 mph 1003.2mb 58f
6:06 2 2 mph 1003.1mb 58f
6:00 2 5 mph 1003.1mb 58f
5:54 1 3 mph 1002.9mb 58f
5:48 1 3 mph 1002.8mb 58f
5:42 2 3 mph 1002.8mb 58f
5:36 2 3 mph 1002.8mb 58f
5:30 1 3 mph 1002.7mb 58f
5:24 1 3 mph 1002.7mb 58f
5:18 2 3 mph - -
5:12 2 3 mph 1002.6mb 58f
5:06 1 3 mph 1002.6mb 58f
5:00 2 3 mph 1002.6mb 58f
4:54 2 3 mph 1002.5mb 57f
4:48 2 5 mph 1002.5mb 58f
4:42 3 6 mph 1002.4mb 57f
4:36 3 6 mph 1002.4mb 57f
4:30 3 6 mph 1002.3mb 58f
4:24 2 5 mph 1002.3mb 57f
4:18 1 3 mph 1002.3mb 57f
4:12 1 2 mph 1002.2mb 57f
4:06 2 5 mph 1002.2mb 57f
4:00 2 2 mph 1002.2mb 57f
3:54  -  2 mph 1002.2mb 57f
3:48 1 3 mph 1002.1mb 57f
3:42 2 3 mph 1002.1mb 57f
3:36 2 5 mph 1002.1mb 57f
3:30 3 6 mph 1002.1mb 57f
3:24 3 6 mph 1002.1mb 57f
3:18 5 8 mph 1002.1mb 56f
3:12 5 8 mph 1002mb 56f
3:06 3 8 mph 1002mb 56f
3:00 5 8 mph 1001.9mb 56f
2:54 3 8 mph 1001.8mb 56f
2:48 5 8 mph 1001.8mb 56f
2:42 5 8 mph 1001.8mb 56f
2:36 5 9 mph 1001.8mb 56f
2:30 6 10 mph 1001.8mb 55f
2:24 5 9 mph 1001.8mb 55f
2:18 7 13 mph 1001.7mb 55f
2:12 6 14 mph 1001.7mb 55f
2:06 6 13 mph 1001.7mb 55f
2:00 3 7 mph 1001.6mb 56f
1:54 5 11 mph 1001.5mb 56f
1:48 6 8 mph 1001.5mb 56f
1:42 3 7 mph 1001.4mb 56f
1:36 3 7 mph 1001.4mb 56f
1:30 5 10 mph 1001.4mb 56f
1:24 6 13 mph 1001.3mb 56f
1:18 6 11 mph 1001.2mb 56f
1:12 6 10 mph 1001.1mb 56f
1:06 5 13 mph 1001mb 56f
1:00 6 10 mph 1000.9mb 55f
12:54 3 8 mph 1000.9mb 55f
12:48 5 10 mph 1000.7mb 56f
12:42 5 10 mph 1000.7mb 54f
12:36 3 7 mph 1000.7mb 54f
12:30 3 9 mph 1000.6mb 54f
12:24 5 13 mph 1000.5mb 53f
12:18 3 8 mph 1000.5mb 53f
12:12 5 10 mph 1000.4mb 53f
12:06 5 11 mph 1000.4mb 53f
12:00 5 11 mph 1000.3mb 53f
11:54 5 8 mph 1000.3mb 53f
11:48 5 11 mph 1000.2mb 53f
11:42 6 11 mph 1000.2mb 53f
11:36 8 15 mph 1000.2mb 53f
11:30 6 11 mph 1000mb 53f
11:24 7 16 mph 1000.1mb 53f
11:18 7 15 mph 1000mb 52f
11:12 5 10 mph 999.9mb 53f
11:06 6 13 mph 999.8mb 53f